Terminal Aerodrome Forecast
Issued by NWS Charleston, WV

Current Version | Previous Version | Graphics & Text | Print | Product List | Glossary On
Versions: 1 2 3 4 5 6 7 8 9 10 11 12 13 14 15 16 17 18 19 20 21 22
000
FTUS41 KRLX 030530
TAFPKB
TAF
KPKB 030530Z 0306/0406 00000KT P6SM SCT060
     FM030800 00000KT 4SM BR SCT003 BKN100
     FM030900 00000KT 2SM BR SCT003
     FM031200 00000KT P6SM SCT003
     FM031700 VRB03KT P6SM VCTS BKN035CB
     FM032300 00000KT P6SM SCT035
     FM040300 00000KT 6SM HZ SCT045=

USA.gov is the U.S. government's official web portal to all federal, state and local government web resources and services.